createdAt,value
2023-08-24T00:01:53.126Z,18.90
2023-08-24T00:05:57.467Z,18.90
2023-08-24T00:10:00.389Z,18.80
2023-08-24T00:14:04.422Z,18.80
2023-08-24T00:18:07.881Z,18.70
2023-08-24T00:22:13.986Z,18.70
2023-08-24T00:26:18.035Z,18.60
2023-08-24T00:30:21.061Z,18.60
2023-08-24T00:34:24.001Z,18.50
2023-08-24T00:38:30.365Z,18.50
2023-08-24T00:42:33.501Z,18.40
2023-08-24T00:46:36.782Z,18.40
2023-08-24T00:50:39.673Z,18.30
2023-08-24T00:54:43.958Z,18.30
2023-08-24T00:58:47.414Z,18.30
2023-08-24T01:02:50.363Z,18.20
2023-08-24T01:06:53.592Z,18.20
2023-08-24T01:11:01.224Z,18.10
2023-08-24T01:15:06.970Z,18.10
2023-08-24T01:19:12.970Z,18.00
2023-08-24T01:23:23.130Z,18.00
2023-08-24T01:27:28.651Z,17.90
2023-08-24T01:31:32.121Z,17.90
2023-08-24T01:35:35.018Z,17.80
2023-08-24T01:39:44.726Z,17.80
2023-08-24T01:43:51.555Z,17.70
2023-08-24T01:47:56.329Z,17.60
2023-08-24T01:51:59.814Z,17.60
2023-08-24T01:56:15.546Z,17.50
2023-08-24T02:00:21.057Z,17.50
2023-08-24T02:04:24.033Z,17.40
2023-08-24T02:08:26.970Z,17.40
2023-08-24T02:12:29.876Z,17.30
2023-08-24T02:16:34.470Z,17.30
2023-08-24T02:20:37.656Z,17.20
2023-08-24T02:24:40.618Z,17.20
2023-08-24T02:28:43.623Z,17.20
2023-08-24T02:32:47.900Z,17.10
2023-08-24T02:36:50.872Z,17.10
2023-08-24T02:41:02.122Z,17.00
2023-08-24T02:45:05.496Z,17.00
2023-08-24T02:49:09.730Z,17.00
2023-08-24T02:53:12.620Z,17.00
2023-08-24T02:57:15.489Z,16.90
2023-08-24T03:01:45.130Z,16.90
2023-08-24T03:05:56.861Z,16.80
2023-08-24T03:09:59.746Z,16.80
2023-08-24T03:14:02.628Z,16.70
2023-08-24T03:18:05.950Z,16.70
2023-08-24T03:22:10.331Z,16.60
2023-08-24T03:26:13.206Z,16.60
2023-08-24T03:30:53.967Z,16.60
2023-08-24T03:35:00.504Z,16.50
2023-08-24T03:39:05.286Z,16.50
2023-08-24T03:43:19.280Z,16.50
2023-08-24T03:47:22.286Z,16.40
2023-08-24T03:51:25.162Z,16.40
2023-08-24T03:55:29.447Z,16.30
2023-08-24T03:59:42.209Z,16.30
2023-08-24T04:03:45.184Z,16.30
2023-08-24T04:07:49.039Z,16.30
2023-08-24T04:11:53.583Z,16.30
2023-08-24T04:15:56.657Z,16.30
2023-08-24T04:19:59.544Z,16.30
2023-08-24T04:24:02.537Z,16.30
2023-08-24T04:28:07.246Z,16.30
2023-08-24T04:32:10.466Z,16.40
2023-08-24T04:36:22.369Z,16.40
2023-08-24T04:40:25.483Z,16.40
2023-08-24T04:44:29.793Z,16.50
2023-08-24T04:48:33.844Z,16.50
2023-08-24T04:52:37.121Z,16.60
2023-08-24T04:56:40.041Z,16.60
2023-08-24T05:00:44.664Z,16.70
2023-08-24T05:05:15.134Z,16.70
2023-08-24T05:09:19.219Z,16.70
2023-08-24T05:13:22.182Z,16.80
2023-08-24T05:17:28.013Z,16.80
2023-08-24T05:21:30.999Z,16.90
2023-08-24T05:25:35.329Z,16.90
2023-08-24T05:29:57.334Z,16.90
2023-08-24T05:34:01.655Z,17.00
2023-08-24T05:38:04.759Z,17.00
2023-08-24T05:42:23.097Z,17.00
2023-08-24T05:46:25.990Z,17.00
2023-08-24T05:50:30.311Z,17.10
2023-08-24T05:54:39.945Z,17.10
2023-08-24T05:58:42.857Z,17.10
2023-08-24T06:02:46.107Z,17.20
2023-08-24T06:06:51.660Z,17.20
2023-08-24T06:10:54.722Z,17.30
2023-08-24T06:14:57.989Z,17.30
2023-08-24T06:19:30.770Z,17.30
2023-08-24T06:23:35.121Z,17.40
2023-08-24T06:27:38.053Z,17.50
2023-08-24T06:31:40.985Z,17.60
2023-08-24T06:36:07.341Z,17.70
2023-08-24T06:40:12.451Z,17.80
2023-08-24T06:44:15.342Z,17.90
2023-08-24T06:48:19.877Z,18.00
2023-08-24T06:52:22.768Z,18.10
2023-08-24T06:56:27.046Z,18.20
2023-08-24T07:01:00.893Z,18.30
2023-08-24T07:05:05.937Z,18.30
2023-08-24T07:09:09.455Z,18.40
2023-08-24T07:13:13.717Z,18.50
2023-08-24T07:17:19.239Z,18.60
2023-08-24T07:21:22.109Z,18.80
2023-08-24T07:25:25.001Z,18.90
2023-08-24T07:29:52.803Z,19.10
2023-08-24T07:33:57.086Z,19.30
2023-08-24T07:38:00.440Z,19.50
2023-08-24T07:42:03.933Z,19.60
2023-08-24T07:46:09.007Z,19.80
2023-08-24T07:50:13.686Z,19.90
2023-08-24T07:54:16.751Z,20.10
2023-08-24T07:58:27.676Z,20.30
2023-08-24T08:02:30.581Z,20.50
2023-08-24T08:06:35.097Z,20.60
2023-08-24T08:11:09.272Z,20.80
2023-08-24T08:15:12.214Z,21.00
2023-08-24T08:19:15.096Z,21.30
2023-08-24T08:23:19.361Z,21.50
2023-08-24T08:27:46.114Z,21.70
2023-08-24T08:31:49.598Z,21.90
2023-08-24T08:35:52.647Z,22.20
2023-08-24T08:39:56.918Z,22.40
2023-08-24T08:44:09.079Z,22.60
2023-08-24T08:48:12.982Z,22.80
2023-08-24T08:52:15.913Z,23.00
2023-08-24T08:56:20.285Z,23.20
2023-08-24T09:00:35.830Z,23.40
2023-08-24T09:04:38.860Z,23.70
2023-08-24T09:08:41.964Z,24.00
2023-08-24T09:12:46.238Z,24.30
2023-08-24T09:17:09.853Z,24.50
2023-08-24T09:21:13.357Z,24.80
2023-08-24T09:25:16.289Z,25.10
2023-08-24T09:29:21.509Z,25.30
2023-08-24T09:33:43.573Z,25.60
2023-08-24T09:37:47.218Z,25.80
2023-08-24T09:41:51.355Z,26.10
2023-08-24T09:46:19.984Z,26.30
2023-08-24T09:50:25.211Z,26.60
2023-08-24T09:54:29.085Z,26.80
2023-08-24T09:59:04.584Z,27.10
2023-08-24T10:03:08.318Z,27.40
2023-08-24T10:07:21.553Z,27.70
2023-08-24T10:11:27.017Z,28.00
2023-08-24T10:15:30.008Z,28.20
2023-08-24T10:19:37.473Z,28.50
2023-08-24T10:23:41.925Z,28.70
2023-08-24T10:27:49.162Z,28.90
2023-08-24T10:31:52.764Z,29.10
2023-08-24T10:35:57.687Z,29.20
2023-08-24T10:40:02.160Z,29.40
2023-08-24T10:44:06.874Z,29.50
2023-08-24T10:48:14.403Z,29.60
2023-08-24T10:52:21.338Z,29.70
2023-08-24T10:56:31.616Z,29.90
2023-08-24T11:00:34.552Z,29.90
2023-08-24T11:04:38.072Z,30.00
2023-08-24T11:08:47.946Z,30.00
2023-08-24T11:13:10.822Z,30.10
2023-08-24T11:17:20.936Z,30.30
2023-08-24T11:21:24.301Z,30.30
2023-08-24T11:25:27.520Z,30.50
2023-08-24T11:29:30.571Z,30.60
2023-08-24T11:33:35.529Z,30.80
2023-08-24T11:37:38.442Z,30.80
2023-08-24T11:41:41.301Z,31.00
2023-08-24T11:45:44.232Z,31.20
2023-08-24T11:49:50.526Z,31.30
2023-08-24T11:53:53.716Z,31.50
2023-08-24T11:57:56.896Z,31.60
2023-08-24T12:01:59.982Z,31.80
2023-08-24T12:06:12.642Z,31.80
2023-08-24T12:10:15.535Z,32.00
2023-08-24T12:14:21.453Z,32.00
2023-08-24T12:18:25.472Z,32.10
2023-08-24T12:22:31.474Z,32.10
2023-08-24T12:26:44.664Z,32.30
2023-08-24T12:30:48.235Z,32.30
2023-08-24T12:34:52.637Z,32.30
2023-08-24T12:38:56.992Z,32.50
2023-08-24T12:42:59.892Z,32.50
2023-08-24T12:47:03.185Z,32.60
2023-08-24T12:51:06.216Z,32.60
2023-08-24T12:55:11.661Z,32.70
2023-08-24T12:59:14.527Z,32.70
2023-08-24T13:03:17.436Z,32.80
2023-08-24T13:07:20.353Z,32.80
2023-08-24T13:11:55.777Z,32.80
2023-08-24T13:16:00.486Z,32.80
2023-08-24T13:20:04.081Z,32.70
2023-08-24T13:24:06.960Z,32.60
2023-08-24T13:28:11.061Z,32.50
2023-08-24T13:52:32.702Z,32.10
2023-08-24T13:56:38.390Z,31.90
2023-08-24T14:00:41.315Z,31.80
2023-08-24T14:04:44.222Z,31.60
2023-08-24T14:08:57.201Z,31.40
2023-08-24T14:13:01.457Z,31.30
2023-08-24T14:17:04.642Z,31.10
2023-08-24T14:21:08.266Z,31.10
2023-08-24T14:25:11.255Z,30.90
2023-08-24T14:29:29.954Z,30.80
2023-08-24T14:33:32.794Z,30.80
2023-08-24T14:37:35.742Z,30.60
2023-08-24T14:41:38.625Z,30.50
2023-08-24T14:45:50.936Z,30.50
2023-08-24T14:49:53.944Z,30.40
2023-08-24T14:53:56.816Z,30.40
2023-08-24T14:58:00.744Z,30.30
2023-08-24T15:02:05.284Z,30.30
2023-08-24T15:06:09.443Z,30.20
2023-08-24T15:10:12.510Z,30.10
2023-08-24T15:14:15.459Z,30.00
2023-08-24T15:18:19.746Z,29.90
2023-08-24T15:22:29.865Z,29.80
2023-08-24T15:26:32.896Z,29.80
2023-08-24T15:30:43.687Z,29.70
2023-08-24T15:34:47.948Z,29.50
2023-08-24T15:38:50.846Z,29.40
2023-08-24T15:42:53.811Z,29.30
2023-08-24T15:46:57.016Z,29.20
2023-08-24T15:51:01.664Z,29.10
2023-08-24T15:55:04.772Z,29.00
2023-08-24T15:59:09.658Z,28.90
2023-08-24T16:03:12.668Z,28.80
2023-08-24T16:07:17.293Z,28.70
2023-08-24T16:11:20.187Z,28.60
2023-08-24T16:15:24.216Z,28.50
2023-08-24T16:19:27.274Z,28.40
2023-08-24T16:23:31.933Z,28.30
2023-08-24T16:27:35.604Z,28.20
2023-08-24T16:31:38.664Z,28.10
2023-08-24T16:35:41.603Z,28.10
2023-08-24T16:39:45.851Z,28.00
2023-08-24T16:43:55.774Z,27.90
2023-08-24T16:47:58.686Z,27.90
2023-08-24T16:52:01.639Z,27.80
2023-08-24T16:56:05.948Z,27.70
2023-08-24T17:00:09.500Z,27.70
2023-08-24T17:04:12.734Z,27.60
2023-08-24T17:08:16.662Z,27.50
2023-08-24T17:12:22.933Z,27.50
2023-08-24T17:16:26.189Z,27.40
2023-08-24T17:20:43.272Z,27.40
2023-08-24T17:24:46.362Z,27.30
2023-08-24T17:28:51.455Z,27.30
2023-08-24T17:33:13.702Z,27.20
2023-08-24T17:37:16.582Z,27.10
2023-08-24T17:41:24.688Z,27.10
2023-08-24T17:45:28.949Z,27.00
2023-08-24T17:49:31.846Z,27.00
2023-08-24T17:54:02.537Z,26.90
2023-08-24T17:58:19.581Z,26.90
2023-08-24T18:02:26.321Z,26.80
2023-08-24T18:06:29.512Z,26.80
2023-08-24T18:10:32.419Z,26.70
2023-08-24T18:15:09.293Z,26.70
2023-08-24T18:19:16.780Z,26.60
2023-08-24T18:23:20.088Z,26.50
2023-08-24T18:27:23.025Z,26.50
2023-08-24T18:31:39.587Z,26.40
2023-08-24T18:35:43.875Z,26.40
2023-08-24T18:39:47.940Z,26.30
2023-08-24T18:43:50.817Z,26.20
2023-08-24T18:47:53.958Z,26.20
2023-08-24T18:51:58.366Z,26.10
2023-08-24T18:56:01.279Z,26.10
2023-08-24T19:00:04.746Z,26.00
2023-08-24T19:04:08.083Z,25.90
2023-08-24T19:08:13.302Z,25.90
2023-08-24T19:12:16.751Z,25.80
2023-08-24T19:16:20.198Z,25.70
2023-08-24T19:20:24.035Z,25.70
2023-08-24T19:24:28.571Z,25.60
2023-08-24T19:28:33.633Z,25.50
2023-08-24T19:32:40.240Z,25.50
2023-08-24T19:36:43.205Z,25.30
2023-08-24T19:40:48.111Z,25.30
2023-08-24T19:44:51.850Z,25.30
2023-08-24T19:48:54.828Z,25.20
2023-08-24T19:52:58.008Z,25.10
2023-08-24T19:57:02.667Z,25.10
2023-08-24T20:01:06.036Z,25.00
2023-08-24T20:05:10.714Z,25.00
2023-08-24T20:09:16.361Z,24.90
2023-08-24T20:13:22.101Z,24.90
2023-08-24T20:17:30.266Z,24.90
2023-08-24T20:21:34.607Z,24.80
2023-08-24T20:25:38.274Z,24.70
2023-08-24T20:29:43.187Z,24.70
2023-08-24T20:33:47.402Z,24.60
2023-08-24T20:37:51.383Z,24.50
2023-08-24T20:42:13.811Z,24.50
2023-08-24T20:46:19.331Z,24.40
2023-08-24T20:50:23.051Z,24.30
2023-08-24T20:54:29.064Z,24.30
2023-08-24T20:58:32.200Z,24.30
2023-08-24T21:02:37.178Z,24.20
2023-08-24T21:06:41.003Z,24.10
2023-08-24T21:10:44.814Z,24.00
2023-08-24T21:14:49.062Z,24.00
2023-08-24T21:18:53.990Z,23.90
2023-08-24T21:22:57.407Z,23.90
2023-08-24T21:27:00.880Z,23.80
2023-08-24T21:31:04.921Z,23.70
2023-08-24T21:35:10.759Z,23.70
2023-08-24T21:39:17.584Z,23.60
2023-08-24T21:43:21.339Z,23.50
2023-08-24T21:47:24.623Z,23.50
2023-08-24T21:51:29.165Z,23.40
2023-08-24T21:55:37.512Z,23.30
2023-08-24T21:59:40.995Z,23.30
2023-08-24T22:03:43.934Z,23.20
2023-08-24T22:07:58.258Z,23.20
2023-08-24T22:12:01.132Z,23.10
2023-08-24T22:16:22.372Z,23.10
2023-08-24T22:20:25.770Z,23.10
2023-08-24T22:24:30.046Z,23.00
2023-08-24T22:28:32.926Z,23.00
2023-08-24T22:33:08.914Z,23.00
2023-08-24T22:37:11.847Z,23.00
2023-08-24T22:41:16.083Z,22.90
2023-08-24T22:45:19.079Z,22.90
2023-08-24T22:49:21.992Z,22.90
2023-08-24T22:53:29.935Z,22.80
2023-08-24T22:57:34.303Z,22.80
2023-08-24T23:01:37.612Z,22.80
2023-08-24T23:05:41.432Z,22.80
2023-08-24T23:09:44.350Z,22.80
2023-08-24T23:13:48.575Z,22.70
2023-08-24T23:17:53.587Z,22.70
2023-08-24T23:21:56.692Z,22.60
2023-08-24T23:25:59.569Z,22.60
2023-08-24T23:30:04.882Z,22.50
2023-08-24T23:34:07.765Z,22.50
2023-08-24T23:38:11.093Z,22.50
2023-08-24T23:42:13.999Z,22.40
2023-08-24T23:46:18.251Z,22.40
2023-08-24T23:50:21.130Z,22.30
2023-08-24T23:54:24.567Z,22.30
2023-08-24T23:58:27.436Z,22.30
